sensor_id;sensor_type;location;lat;lon;timestamp;pressure;altitude;pressure_sealevel;temperature;humidity
75891;BME280;64571;47.512;19.054;2023-07-08T00:00:21;100949.78;;;22.76;53.39
75891;BME280;64571;47.512;19.054;2023-07-08T00:03:25;100945.84;;;22.65;54.17
75891;BME280;64571;47.512;19.054;2023-07-08T00:06:27;100946.13;;;22.60;54.03
75891;BME280;64571;47.512;19.054;2023-07-08T00:09:30;100941.22;;;22.57;54.01
75891;BME280;64571;47.512;19.054;2023-07-08T00:12:33;100946.59;;;22.46;54.25
75891;BME280;64571;47.512;19.054;2023-07-08T00:15:36;100946.88;;;22.41;54.79
75891;BME280;64571;47.512;19.054;2023-07-08T00:18:40;100949.16;;;22.35;54.16
75891;BME280;64571;47.512;19.054;2023-07-08T00:21:43;100953.53;;;22.33;54.10
75891;BME280;64571;47.512;19.054;2023-07-08T00:24:45;100942.84;;;22.26;54.44
75891;BME280;64571;47.512;19.054;2023-07-08T00:27:48;100945.69;;;22.26;53.91
75891;BME280;64571;47.512;19.054;2023-07-08T00:30:51;100946.06;;;22.24;53.61
75891;BME280;64571;47.512;19.054;2023-07-08T00:33:55;100946.66;;;22.18;53.63
75891;BME280;64571;47.512;19.054;2023-07-08T00:36:59;100939.81;;;22.19;53.38
75891;BME280;64571;47.512;19.054;2023-07-08T00:40:17;100942.34;;;22.08;53.60
75891;BME280;64571;47.512;19.054;2023-07-08T00:43:27;100929.72;;;22.06;53.29
75891;BME280;64571;47.512;19.054;2023-07-08T00:46:52;100930.91;;;22.05;52.72
75891;BME280;64571;47.512;19.054;2023-07-08T00:50:03;100930.38;;;21.99;53.76
75891;BME280;64571;47.512;19.054;2023-07-08T00:53:33;100948.87;;;21.96;54.69
75891;BME280;64571;47.512;19.054;2023-07-08T01:00:14;100941.63;;;21.83;56.14
75891;BME280;64571;47.512;19.054;2023-07-08T01:03:21;100933.22;;;21.71;56.83
75891;BME280;64571;47.512;19.054;2023-07-08T01:06:25;100934.88;;;21.72;57.07
75891;BME280;64571;47.512;19.054;2023-07-08T01:09:41;100938.22;;;21.62;56.75
75891;BME280;64571;47.512;19.054;2023-07-08T01:12:49;100944.59;;;21.59;57.38
75891;BME280;64571;47.512;19.054;2023-07-08T01:15:53;100937.78;;;21.47;57.25
75891;BME280;64571;47.512;19.054;2023-07-08T01:18:56;100936.03;;;21.43;56.93
75891;BME280;64571;47.512;19.054;2023-07-08T01:22:03;100942.97;;;21.45;56.76
75891;BME280;64571;47.512;19.054;2023-07-08T01:25:07;100955.25;;;21.37;57.57
75891;BME280;64571;47.512;19.054;2023-07-08T01:28:11;100951.50;;;21.21;58.03
75891;BME280;64571;47.512;19.054;2023-07-08T01:31:14;100940.34;;;21.12;58.29
75891;BME280;64571;47.512;19.054;2023-07-08T01:34:18;100952.09;;;21.14;58.91
75891;BME280;64571;47.512;19.054;2023-07-08T01:37:22;100948.47;;;21.02;59.01
75891;BME280;64571;47.512;19.054;2023-07-08T01:40:34;100949.66;;;21.01;59.12
75891;BME280;64571;47.512;19.054;2023-07-08T01:43:37;100953.53;;;20.96;59.39
75891;BME280;64571;47.512;19.054;2023-07-08T01:46:40;100937.78;;;20.83;59.19
75891;BME280;64571;47.512;19.054;2023-07-08T01:49:45;100948.00;;;20.87;59.30
75891;BME280;64571;47.512;19.054;2023-07-08T01:52:50;100934.63;;;20.72;58.44
75891;BME280;64571;47.512;19.054;2023-07-08T01:55:54;100947.56;;;20.73;58.19
75891;BME280;64571;47.512;19.054;2023-07-08T01:58:57;100948.50;;;20.65;58.47
75891;BME280;64571;47.512;19.054;2023-07-08T02:02:00;100945.78;;;20.56;59.66
75891;BME280;64571;47.512;19.054;2023-07-08T02:05:03;100933.22;;;20.54;59.88
75891;BME280;64571;47.512;19.054;2023-07-08T02:08:06;100935.09;;;20.50;59.92
75891;BME280;64571;47.512;19.054;2023-07-08T02:11:09;100935.75;;;20.46;60.21
75891;BME280;64571;47.512;19.054;2023-07-08T02:14:11;100938.81;;;20.41;60.09
75891;BME280;64571;47.512;19.054;2023-07-08T02:17:15;100939.03;;;20.36;60.15
75891;BME280;64571;47.512;19.054;2023-07-08T02:20:19;100942.44;;;20.42;59.96
75891;BME280;64571;47.512;19.054;2023-07-08T02:23:21;100930.56;;;20.36;59.95
75891;BME280;64571;47.512;19.054;2023-07-08T02:26:24;100939.50;;;20.38;60.28
75891;BME280;64571;47.512;19.054;2023-07-08T02:29:27;100932.41;;;20.20;60.42
75891;BME280;64571;47.512;19.054;2023-07-08T02:32:30;100939.72;;;20.21;60.31
75891;BME280;64571;47.512;19.054;2023-07-08T02:35:34;100942.63;;;20.12;59.69
75891;BME280;64571;47.512;19.054;2023-07-08T02:38:36;100935.44;;;20.03;58.88
75891;BME280;64571;47.512;19.054;2023-07-08T02:41:39;100949.44;;;20.11;58.60
75891;BME280;64571;47.512;19.054;2023-07-08T02:44:42;100933.94;;;20.05;58.33
75891;BME280;64571;47.512;19.054;2023-07-08T02:47:45;100939.91;;;20.04;58.73
75891;BME280;64571;47.512;19.054;2023-07-08T02:50:47;100947.22;;;20.05;58.98
75891;BME280;64571;47.512;19.054;2023-07-08T02:53:50;100937.88;;;19.92;59.24
75891;BME280;64571;47.512;19.054;2023-07-08T02:56:53;100942.22;;;19.89;59.22
75891;BME280;64571;47.512;19.054;2023-07-08T02:59:55;100946.00;;;19.93;58.69
75891;BME280;64571;47.512;19.054;2023-07-08T03:02:58;100944.50;;;19.96;59.01
75891;BME280;64571;47.512;19.054;2023-07-08T03:06:04;100953.41;;;19.98;59.13
75891;BME280;64571;47.512;19.054;2023-07-08T03:09:08;100948.34;;;19.91;59.47
75891;BME280;64571;47.512;19.054;2023-07-08T03:12:11;100955.63;;;19.92;58.81
75891;BME280;64571;47.512;19.054;2023-07-08T03:15:14;100947.84;;;19.89;59.00
75891;BME280;64571;47.512;19.054;2023-07-08T03:18:17;100965.75;;;19.93;59.27
75891;BME280;64571;47.512;19.054;2023-07-08T03:21:20;100964.53;;;19.82;59.29
75891;BME280;64571;47.512;19.054;2023-07-08T03:24:23;100960.62;;;19.75;59.71
75891;BME280;64571;47.512;19.054;2023-07-08T03:27:26;100962.25;;;19.63;60.16
75891;BME280;64571;47.512;19.054;2023-07-08T03:30:29;100972.84;;;19.58;60.71
75891;BME280;64571;47.512;19.054;2023-07-08T03:33:32;100970.22;;;19.61;60.99
75891;BME280;64571;47.512;19.054;2023-07-08T03:36:35;100964.56;;;19.61;61.12
75891;BME280;64571;47.512;19.054;2023-07-08T03:39:39;100970.81;;;19.67;60.88
75891;BME280;64571;47.512;19.054;2023-07-08T03:42:41;100974.59;;;19.50;60.75
75891;BME280;64571;47.512;19.054;2023-07-08T03:45:45;100967.62;;;19.47;61.30
75891;BME280;64571;47.512;19.054;2023-07-08T03:48:48;100980.56;;;19.48;61.14
75891;BME280;64571;47.512;19.054;2023-07-08T03:51:52;100981.34;;;19.37;61.38
75891;BME280;64571;47.512;19.054;2023-07-08T03:54:58;100983.56;;;19.22;61.62
75891;BME280;64571;47.512;19.054;2023-07-08T03:58:02;100980.84;;;19.14;61.96
75891;BME280;64571;47.512;19.054;2023-07-08T04:01:18;100988.06;;;19.23;61.72
75891;BME280;64571;47.512;19.054;2023-07-08T04:04:23;100970.94;;;19.29;61.56
75891;BME280;64571;47.512;19.054;2023-07-08T04:07:25;100974.53;;;19.38;61.76
75891;BME280;64571;47.512;19.054;2023-07-08T04:10:28;100982.63;;;19.39;62.11
75891;BME280;64571;47.512;19.054;2023-07-08T04:13:31;100979.47;;;19.41;62.34
75891;BME280;64571;47.512;19.054;2023-07-08T04:16:56;100977.81;;;19.40;62.38
75891;BME280;64571;47.512;19.054;2023-07-08T04:20:00;100977.69;;;19.36;62.61
75891;BME280;64571;47.512;19.054;2023-07-08T04:23:06;100991.59;;;19.41;62.66
75891;BME280;64571;47.512;19.054;2023-07-08T04:26:09;100991.28;;;19.34;63.08
75891;BME280;64571;47.512;19.054;2023-07-08T04:29:14;100994.94;;;19.35;63.49
75891;BME280;64571;47.512;19.054;2023-07-08T04:32:16;100989.09;;;19.40;63.05
75891;BME280;64571;47.512;19.054;2023-07-08T04:35:19;100987.59;;;19.42;63.04
75891;BME280;64571;47.512;19.054;2023-07-08T04:38:24;100989.37;;;19.47;62.88
75891;BME280;64571;47.512;19.054;2023-07-08T04:41:27;100990.59;;;19.58;62.26
75891;BME280;64571;47.512;19.054;2023-07-08T04:44:30;100981.97;;;19.63;61.51
75891;BME280;64571;47.512;19.054;2023-07-08T04:47:34;100987.88;;;19.70;61.15
75891;BME280;64571;47.512;19.054;2023-07-08T04:50:38;100993.37;;;19.88;60.65
75891;BME280;64571;47.512;19.054;2023-07-08T04:53:40;100998.88;;;19.84;60.38
75891;BME280;64571;47.512;19.054;2023-07-08T04:56:47;101001.22;;;19.82;60.03
75891;BME280;64571;47.512;19.054;2023-07-08T04:59:51;101001.75;;;19.76;60.32
75891;BME280;64571;47.512;19.054;2023-07-08T05:02:53;101002.87;;;19.83;60.21
75891;BME280;64571;47.512;19.054;2023-07-08T05:05:56;100990.84;;;19.74;59.42
75891;BME280;64571;47.512;19.054;2023-07-08T05:08:59;101006.03;;;19.82;59.31
75891;BME280;64571;47.512;19.054;2023-07-08T05:12:03;101008.50;;;19.83;59.25
75891;BME280;64571;47.512;19.054;2023-07-08T05:15:06;101009.38;;;19.96;58.76
75891;BME280;64571;47.512;19.054;2023-07-08T05:18:09;101015.06;;;20.08;58.28
75891;BME280;64571;47.512;19.054;2023-07-08T05:21:12;101015.69;;;20.26;57.56
75891;BME280;64571;47.512;19.054;2023-07-08T05:24:15;101005.75;;;20.41;56.76
75891;BME280;64571;47.512;19.054;2023-07-08T05:27:18;101024.78;;;21.14;54.26
75891;BME280;64571;47.512;19.054;2023-07-08T05:30:21;101008.31;;;21.04;54.27
75891;BME280;64571;47.512;19.054;2023-07-08T05:33:26;101019.72;;;21.19;53.97
75891;BME280;64571;47.512;19.054;2023-07-08T05:36:29;101018.78;;;21.40;53.38
75891;BME280;64571;47.512;19.054;2023-07-08T05:39:32;101027.94;;;21.24;54.56
75891;BME280;64571;47.512;19.054;2023-07-08T05:42:35;101034.34;;;21.74;53.28
75891;BME280;64571;47.512;19.054;2023-07-08T05:45:38;101032.66;;;22.26;51.93
75891;BME280;64571;47.512;19.054;2023-07-08T05:48:41;101027.09;;;22.29;50.56
75891;BME280;64571;47.512;19.054;2023-07-08T05:51:44;101027.88;;;22.02;52.23
75891;BME280;64571;47.512;19.054;2023-07-08T05:54:47;101039.28;;;21.89;52.33
75891;BME280;64571;47.512;19.054;2023-07-08T05:57:49;101032.31;;;21.87;51.91
75891;BME280;64571;47.512;19.054;2023-07-08T06:00:56;101032.72;;;22.01;48.80
75891;BME280;64571;47.512;19.054;2023-07-08T06:04:00;101037.97;;;21.87;49.13
75891;BME280;64571;47.512;19.054;2023-07-08T06:07:03;101047.69;;;22.14;48.71
75891;BME280;64571;47.512;19.054;2023-07-08T06:10:06;101045.34;;;22.16;48.33
75891;BME280;64571;47.512;19.054;2023-07-08T06:13:10;101045.62;;;22.70;47.87
75891;BME280;64571;47.512;19.054;2023-07-08T06:16:12;101025.47;;;23.23;46.79
75891;BME280;64571;47.512;19.054;2023-07-08T06:19:19;101047.28;;;23.54;47.50
75891;BME280;64571;47.512;19.054;2023-07-08T06:22:22;101037.84;;;23.50;46.50
75891;BME280;64571;47.512;19.054;2023-07-08T06:25:45;101045.69;;;23.21;47.90
75891;BME280;64571;47.512;19.054;2023-07-08T06:28:47;101043.66;;;23.38;46.69
75891;BME280;64571;47.512;19.054;2023-07-08T06:31:50;101046.81;;;23.17;46.53
75891;BME280;64571;47.512;19.054;2023-07-08T06:34:53;101045.75;;;23.41;45.02
75891;BME280;64571;47.512;19.054;2023-07-08T06:37:56;101040.37;;;23.71;44.47
75891;BME280;64571;47.512;19.054;2023-07-08T06:40:59;101031.78;;;23.67;44.51
75891;BME280;64571;47.512;19.054;2023-07-08T06:44:02;101032.59;;;24.26;42.77
75891;BME280;64571;47.512;19.054;2023-07-08T06:47:05;101034.75;;;24.75;42.04
75891;BME280;64571;47.512;19.054;2023-07-08T06:50:08;101030.94;;;24.44;42.59
75891;BME280;64571;47.512;19.054;2023-07-08T06:53:11;101035.59;;;24.75;42.10
75891;BME280;64571;47.512;19.054;2023-07-08T06:56:14;101030.34;;;24.55;42.09
75891;BME280;64571;47.512;19.054;2023-07-08T06:59:17;101024.72;;;24.81;41.06
75891;BME280;64571;47.512;19.054;2023-07-08T07:02:19;101030.06;;;25.32;40.45
75891;BME280;64571;47.512;19.054;2023-07-08T07:05:22;101025.28;;;25.13;41.03
75891;BME280;64571;47.512;19.054;2023-07-08T07:08:25;101029.91;;;25.78;40.30
75891;BME280;64571;47.512;19.054;2023-07-08T07:11:28;101028.62;;;25.19;40.78
75891;BME280;64571;47.512;19.054;2023-07-08T07:14:31;101024.78;;;25.34;40.36
75891;BME280;64571;47.512;19.054;2023-07-08T07:17:36;101022.63;;;24.78;41.16
75891;BME280;64571;47.512;19.054;2023-07-08T07:20:48;101016.19;;;24.58;40.96
75891;BME280;64571;47.512;19.054;2023-07-08T07:23:52;101023.87;;;24.81;41.35
75891;BME280;64571;47.512;19.054;2023-07-08T07:26:55;101023.22;;;25.67;39.24
75891;BME280;64571;47.512;19.054;2023-07-08T07:29:58;101024.25;;;26.12;38.40
75891;BME280;64571;47.512;19.054;2023-07-08T07:33:03;101021.56;;;26.63;37.33
75891;BME280;64571;47.512;19.054;2023-07-08T07:36:06;101015.22;;;26.84;36.33
75891;BME280;64571;47.512;19.054;2023-07-08T07:39:08;101023.56;;;27.07;36.21
75891;BME280;64571;47.512;19.054;2023-07-08T07:42:13;101021.97;;;27.10;35.72
75891;BME280;64571;47.512;19.054;2023-07-08T07:45:18;101022.44;;;27.19;34.88
75891;BME280;64571;47.512;19.054;2023-07-08T07:48:25;101006.66;;;27.36;34.23
75891;BME280;64571;47.512;19.054;2023-07-08T07:51:27;101022.31;;;27.56;33.08
75891;BME280;64571;47.512;19.054;2023-07-08T07:54:30;101019.00;;;27.54;33.13
75891;BME280;64571;47.512;19.054;2023-07-08T07:57:33;101018.34;;;27.82;32.78
75891;BME280;64571;47.512;19.054;2023-07-08T08:00:36;101017.09;;;27.72;33.44
75891;BME280;64571;47.512;19.054;2023-07-08T08:03:39;101010.09;;;27.63;33.92
75891;BME280;64571;47.512;19.054;2023-07-08T08:06:41;101007.44;;;27.29;34.45
75891;BME280;64571;47.512;19.054;2023-07-08T08:09:44;100998.81;;;27.22;34.26
75891;BME280;64571;47.512;19.054;2023-07-08T08:12:47;100987.44;;;27.25;34.20
75891;BME280;64571;47.512;19.054;2023-07-08T08:15:59;100989.94;;;27.34;34.13
75891;BME280;64571;47.512;19.054;2023-07-08T08:19:02;100985.69;;;27.10;34.39
75891;BME280;64571;47.512;19.054;2023-07-08T08:22:09;100993.59;;;27.35;34.26
75891;BME280;64571;47.512;19.054;2023-07-08T08:25:11;100983.56;;;27.62;33.71
75891;BME280;64571;47.512;19.054;2023-07-08T08:28:15;100987.19;;;27.59;33.75
75891;BME280;64571;47.512;19.054;2023-07-08T08:31:17;100984.31;;;27.48;33.61
75891;BME280;64571;47.512;19.054;2023-07-08T08:34:20;100989.69;;;27.61;33.09
75891;BME280;64571;47.512;19.054;2023-07-08T08:37:23;100987.19;;;27.56;33.31
75891;BME280;64571;47.512;19.054;2023-07-08T08:40:26;100990.50;;;27.65;33.49
75891;BME280;64571;47.512;19.054;2023-07-08T08:43:35;100990.09;;;27.63;33.45
75891;BME280;64571;47.512;19.054;2023-07-08T08:46:49;100981.66;;;27.91;33.12
75891;BME280;64571;47.512;19.054;2023-07-08T08:50:16;100982.09;;;28.00;32.97
75891;BME280;64571;47.512;19.054;2023-07-08T08:53:23;100985.28;;;27.74;33.11
75891;BME280;64571;47.512;19.054;2023-07-08T08:56:38;100975.19;;;28.01;32.98
75891;BME280;64571;47.512;19.054;2023-07-08T09:02:59;100967.88;;;28.25;32.77
75891;BME280;64571;47.512;19.054;2023-07-08T09:06:10;100966.22;;;28.21;32.37
75891;BME280;64571;47.512;19.054;2023-07-08T09:09:26;100957.69;;;28.28;32.35
75891;BME280;64571;47.512;19.054;2023-07-08T09:12:33;100967.81;;;28.00;32.17
75891;BME280;64571;47.512;19.054;2023-07-08T09:15:36;100966.31;;;28.42;31.91
75891;BME280;64571;47.512;19.054;2023-07-08T09:18:45;100959.75;;;28.38;31.98
75891;BME280;64571;47.512;19.054;2023-07-08T09:22:01;100963.44;;;28.39;32.44
75891;BME280;64571;47.512;19.054;2023-07-08T09:28:18;100968.72;;;28.33;30.96
75891;BME280;64571;47.512;19.054;2023-07-08T09:35:07;100969.22;;;28.96;30.26
75891;BME280;64571;47.512;19.054;2023-07-08T09:38:15;100967.09;;;29.29;30.07
75891;BME280;64571;47.512;19.054;2023-07-08T09:41:32;100964.66;;;28.81;31.50
75891;BME280;64571;47.512;19.054;2023-07-08T09:44:38;100965.84;;;29.33;30.67
75891;BME280;64571;47.512;19.054;2023-07-08T09:47:40;100957.34;;;28.97;31.04
75891;BME280;64571;47.512;19.054;2023-07-08T09:50:44;100969.19;;;28.60;31.59
75891;BME280;64571;47.512;19.054;2023-07-08T09:53:47;100963.00;;;28.37;31.69
75891;BME280;64571;47.512;19.054;2023-07-08T10:00:10;100974.84;;;28.28;31.97
75891;BME280;64571;47.512;19.054;2023-07-08T10:03:19;100967.53;;;28.77;31.31
75891;BME280;64571;47.512;19.054;2023-07-08T10:06:28;100965.09;;;28.58;31.37
75891;BME280;64571;47.512;19.054;2023-07-08T10:09:32;100965.50;;;28.42;31.70
75891;BME280;64571;47.512;19.054;2023-07-08T10:12:38;100960.59;;;28.42;31.34
75891;BME280;64571;47.512;19.054;2023-07-08T10:15:55;100951.59;;;28.65;31.12
75891;BME280;64571;47.512;19.054;2023-07-08T10:18:59;100952.00;;;29.14;30.14
75891;BME280;64571;47.512;19.054;2023-07-08T10:22:43;100951.47;;;29.55;29.53
75891;BME280;64571;47.512;19.054;2023-07-08T10:29:15;100946.59;;;30.36;28.05
75891;BME280;64571;47.512;19.054;2023-07-08T10:35:44;100931.38;;;29.72;28.59
75891;BME280;64571;47.512;19.054;2023-07-08T10:39:37;100933.09;;;30.29;28.44
75891;BME280;64571;47.512;19.054;2023-07-08T10:59:20;100916.41;;;30.65;26.97
75891;BME280;64571;47.512;19.054;2023-07-08T11:02:46;100921.78;;;30.60;27.28
75891;BME280;64571;47.512;19.054;2023-07-08T11:06:10;100915.25;;;30.56;27.05
75891;BME280;64571;47.512;19.054;2023-07-08T11:09:22;100910.50;;;30.87;26.70
75891;BME280;64571;47.512;19.054;2023-07-08T11:12:31;100902.97;;;31.00;26.31
75891;BME280;64571;47.512;19.054;2023-07-08T11:15:52;100911.72;;;30.89;26.16
75891;BME280;64571;47.512;19.054;2023-07-08T11:22:10;100896.94;;;30.91;26.33
75891;BME280;64571;47.512;19.054;2023-07-08T11:25:19;100899.44;;;30.85;26.32
75891;BME280;64571;47.512;19.054;2023-07-08T11:28:23;100903.78;;;31.00;26.17
75891;BME280;64571;47.512;19.054;2023-07-08T11:31:31;100899.13;;;31.14;25.89
75891;BME280;64571;47.512;19.054;2023-07-08T11:34:36;100897.97;;;31.08;25.88
75891;BME280;64571;47.512;19.054;2023-07-08T11:37:40;100895.09;;;30.18;26.80
75891;BME280;64571;47.512;19.054;2023-07-08T11:40:58;100876.34;;;30.96;25.83
75891;BME280;64571;47.512;19.054;2023-07-08T11:44:04;100875.97;;;30.94;25.87
75891;BME280;64571;47.512;19.054;2023-07-08T11:47:22;100871.81;;;30.98;25.98
75891;BME280;64571;47.512;19.054;2023-07-08T11:50:38;100860.69;;;31.38;25.30
75891;BME280;64571;47.512;19.054;2023-07-08T11:53:51;100866.38;;;31.08;25.79
75891;BME280;64571;47.512;19.054;2023-07-08T11:57:06;100865.22;;;31.39;25.32
75891;BME280;64571;47.512;19.054;2023-07-08T12:00:16;100859.47;;;31.01;25.76
75891;BME280;64571;47.512;19.054;2023-07-08T12:03:21;100861.78;;;31.14;25.41
75891;BME280;64571;47.512;19.054;2023-07-08T12:06:42;100853.53;;;31.16;25.43
75891;BME280;64571;47.512;19.054;2023-07-08T12:09:57;100858.16;;;30.68;26.27
75891;BME280;64571;47.512;19.054;2023-07-08T12:13:11;100856.63;;;31.36;25.58
75891;BME280;64571;47.512;19.054;2023-07-08T12:16:15;100855.47;;;30.92;25.83
75891;BME280;64571;47.512;19.054;2023-07-08T12:19:20;100843.72;;;31.17;25.69
75891;BME280;64571;47.512;19.054;2023-07-08T12:22:24;100841.59;;;31.21;25.17
75891;BME280;64571;47.512;19.054;2023-07-08T12:25:31;100845.72;;;31.54;24.93
75891;BME280;64571;47.512;19.054;2023-07-08T12:28:38;100844.22;;;31.42;24.90
75891;BME280;64571;47.512;19.054;2023-07-08T12:31:42;100838.91;;;31.71;24.68
75891;BME280;64571;47.512;19.054;2023-07-08T12:34:45;100832.69;;;31.73;24.85
75891;BME280;64571;47.512;19.054;2023-07-08T12:37:50;100835.31;;;31.64;24.70
75891;BME280;64571;47.512;19.054;2023-07-08T12:40:53;100823.84;;;31.60;24.94
75891;BME280;64571;47.512;19.054;2023-07-08T12:43:56;100820.91;;;31.94;24.60
75891;BME280;64571;47.512;19.054;2023-07-08T12:47:02;100828.25;;;31.68;24.55
75891;BME280;64571;47.512;19.054;2023-07-08T12:50:08;100814.16;;;32.05;23.76
75891;BME280;64571;47.512;19.054;2023-07-08T12:53:12;100820.66;;;31.82;23.98
75891;BME280;64571;47.512;19.054;2023-07-08T12:56:16;100825.62;;;32.08;24.12
75891;BME280;64571;47.512;19.054;2023-07-08T12:59:22;100816.91;;;32.39;23.89
75891;BME280;64571;47.512;19.054;2023-07-08T13:02:28;100820.59;;;31.89;24.41
75891;BME280;64571;47.512;19.054;2023-07-08T13:05:33;100817.28;;;31.60;24.64
75891;BME280;64571;47.512;19.054;2023-07-08T13:08:38;100809.13;;;31.85;24.46
75891;BME280;64571;47.512;19.054;2023-07-08T13:11:42;100809.59;;;31.80;24.42
75891;BME280;64571;47.512;19.054;2023-07-08T13:14:45;100815.09;;;31.71;24.57
75891;BME280;64571;47.512;19.054;2023-07-08T13:17:48;100807.91;;;31.56;24.31
75891;BME280;64571;47.512;19.054;2023-07-08T13:20:53;100809.34;;;31.71;24.58
75891;BME280;64571;47.512;19.054;2023-07-08T13:23:57;100803.66;;;31.94;24.46
75891;BME280;64571;47.512;19.054;2023-07-08T13:27:00;100798.41;;;31.89;24.55
75891;BME280;64571;47.512;19.054;2023-07-08T13:30:18;100792.72;;;31.82;24.61
75891;BME280;64571;47.512;19.054;2023-07-08T13:33:21;100801.22;;;31.93;24.14
75891;BME280;64571;47.512;19.054;2023-07-08T13:36:32;100814.81;;;31.62;24.70
75891;BME280;64571;47.512;19.054;2023-07-08T13:39:36;100807.13;;;31.51;24.67
75891;BME280;64571;47.512;19.054;2023-07-08T13:42:46;100812.12;;;31.47;24.67
75891;BME280;64571;47.512;19.054;2023-07-08T13:45:50;100800.78;;;31.94;23.84
75891;BME280;64571;47.512;19.054;2023-07-08T13:48:52;100805.88;;;31.83;24.03
75891;BME280;64571;47.512;19.054;2023-07-08T13:52:25;100804.06;;;31.66;24.49
75891;BME280;64571;47.512;19.054;2023-07-08T13:55:28;100804.66;;;32.08;24.33
75891;BME280;64571;47.512;19.054;2023-07-08T13:58:31;100811.47;;;31.94;24.31
75891;BME280;64571;47.512;19.054;2023-07-08T14:01:38;100797.75;;;32.01;24.19
75891;BME280;64571;47.512;19.054;2023-07-08T14:04:43;100793.91;;;31.88;24.16
75891;BME280;64571;47.512;19.054;2023-07-08T14:07:46;100784.34;;;32.18;23.77
75891;BME280;64571;47.512;19.054;2023-07-08T14:10:51;100785.91;;;31.99;24.28
75891;BME280;64571;47.512;19.054;2023-07-08T14:13:53;100782.25;;;31.95;23.95
75891;BME280;64571;47.512;19.054;2023-07-08T14:16:56;100791.19;;;31.74;24.38
75891;BME280;64571;47.512;19.054;2023-07-08T14:19:59;100800.97;;;31.80;24.42
75891;BME280;64571;47.512;19.054;2023-07-08T14:23:02;100793.69;;;31.72;24.24
75891;BME280;64571;47.512;19.054;2023-07-08T14:26:09;100778.19;;;31.66;24.77
75891;BME280;64571;47.512;19.054;2023-07-08T14:29:13;100788.28;;;31.77;24.42
75891;BME280;64571;47.512;19.054;2023-07-08T14:32:25;100792.13;;;31.67;24.52
75891;BME280;64571;47.512;19.054;2023-07-08T14:35:33;100781.50;;;31.64;24.42
75891;BME280;64571;47.512;19.054;2023-07-08T14:38:36;100776.69;;;31.58;24.50
75891;BME280;64571;47.512;19.054;2023-07-08T14:41:40;100780.09;;;31.76;24.23
75891;BME280;64571;47.512;19.054;2023-07-08T14:44:44;100790.84;;;31.99;24.08
75891;BME280;64571;47.512;19.054;2023-07-08T14:47:48;100784.69;;;31.97;24.07
75891;BME280;64571;47.512;19.054;2023-07-08T14:50:51;100786.09;;;32.12;23.89
75891;BME280;64571;47.512;19.054;2023-07-08T14:53:53;100782.41;;;31.88;24.14
75891;BME280;64571;47.512;19.054;2023-07-08T14:56:58;100775.44;;;31.86;24.21
75891;BME280;64571;47.512;19.054;2023-07-08T15:00:02;100784.88;;;31.86;24.30
75891;BME280;64571;47.512;19.054;2023-07-08T15:03:07;100771.75;;;31.85;24.16
75891;BME280;64571;47.512;19.054;2023-07-08T15:06:10;100773.94;;;31.74;24.88
75891;BME280;64571;47.512;19.054;2023-07-08T15:09:13;100765.59;;;31.56;24.38
75891;BME280;64571;47.512;19.054;2023-07-08T15:12:16;100756.69;;;31.74;24.13
75891;BME280;64571;47.512;19.054;2023-07-08T15:15:33;100759.81;;;31.60;24.31
75891;BME280;64571;47.512;19.054;2023-07-08T15:18:38;100751.44;;;31.42;24.68
75891;BME280;64571;47.512;19.054;2023-07-08T15:21:41;100752.53;;;31.51;24.54
75891;BME280;64571;47.512;19.054;2023-07-08T15:24:43;100758.00;;;31.42;24.91
75891;BME280;64571;47.512;19.054;2023-07-08T15:27:51;100755.75;;;31.26;25.07
75891;BME280;64571;47.512;19.054;2023-07-08T15:31:02;100756.38;;;31.11;24.83
75891;BME280;64571;47.512;19.054;2023-07-08T15:34:17;100764.72;;;31.32;24.94
75891;BME280;64571;47.512;19.054;2023-07-08T15:37:20;100748.91;;;31.17;25.04
75891;BME280;64571;47.512;19.054;2023-07-08T15:40:23;100743.22;;;31.13;24.99
75891;BME280;64571;47.512;19.054;2023-07-08T15:43:26;100733.16;;;30.98;25.50
75891;BME280;64571;47.512;19.054;2023-07-08T15:46:34;100723.19;;;31.06;25.35
75891;BME280;64571;47.512;19.054;2023-07-08T15:49:37;100719.25;;;30.93;25.66
75891;BME280;64571;47.512;19.054;2023-07-08T15:52:40;100733.59;;;30.96;25.73
75891;BME280;64571;47.512;19.054;2023-07-08T15:55:45;100728.37;;;30.88;25.72
75891;BME280;64571;47.512;19.054;2023-07-08T15:58:48;100728.09;;;30.75;25.65
75891;BME280;64571;47.512;19.054;2023-07-08T16:01:51;100725.69;;;30.73;26.19
75891;BME280;64571;47.512;19.054;2023-07-08T16:04:54;100729.28;;;30.81;26.04
75891;BME280;64571;47.512;19.054;2023-07-08T16:07:57;100729.28;;;30.81;26.05
75891;BME280;64571;47.512;19.054;2023-07-08T16:11:04;100723.97;;;30.42;26.68
75891;BME280;64571;47.512;19.054;2023-07-08T16:14:13;100724.25;;;30.55;26.64
75891;BME280;64571;47.512;19.054;2023-07-08T16:17:16;100722.22;;;30.51;26.62
75891;BME280;64571;47.512;19.054;2023-07-08T16:20:22;100723.19;;;30.38;27.01
75891;BME280;64571;47.512;19.054;2023-07-08T16:23:25;100728.34;;;30.54;26.92
75891;BME280;64571;47.512;19.054;2023-07-08T16:26:28;100730.44;;;30.49;27.09
75891;BME280;64571;47.512;19.054;2023-07-08T16:29:32;100725.63;;;30.39;27.22
75891;BME280;64571;47.512;19.054;2023-07-08T16:32:35;100723.19;;;30.38;27.09
75891;BME280;64571;47.512;19.054;2023-07-08T16:35:38;100714.84;;;30.09;27.29
75891;BME280;64571;47.512;19.054;2023-07-08T16:38:41;100725.00;;;30.21;27.61
75891;BME280;64571;47.512;19.054;2023-07-08T16:41:44;100722.59;;;30.16;27.65